createdAt,value
2023-09-11T00:02:26.017Z,72.42762099646271
2023-09-11T00:06:04.030Z,72.38137907242685
2023-09-11T00:12:14.462Z,72.32767928597649
2023-09-11T00:15:33.948Z,72.30792543249524
2023-09-11T00:18:53.989Z,72.27573475199284
2023-09-11T00:22:13.976Z,72.18893270413152
2023-09-11T00:26:49.103Z,72.0724503711819
2023-09-11T00:30:08.956Z,72.10334857755342
2023-09-11T00:33:29.144Z,72.1429468445165
2023-09-11T00:36:49.126Z,72.12205267301033
2023-09-11T00:40:08.787Z,72.08444093751218
2023-09-11T00:47:53.131Z,72.11983500190257
2023-09-11T00:51:12.771Z,72.1803168508277
2023-09-11T00:54:31.525Z,72.23313195852032
2023-09-11T00:57:50.609Z,72.25991351536828
2023-09-11T01:01:10.177Z,72.26122091758904
2023-09-11T01:04:30.255Z,72.22847882292596
2023-09-11T01:10:12.875Z,72.23620780088433
2023-09-11T01:13:32.507Z,72.27306914832182
2023-09-11T01:16:52.702Z,72.34950310362265
2023-09-11T01:20:13.010Z,72.3500493932135
2023-09-11T01:23:32.639Z,72.3470579538844
2023-09-11T01:26:52.516Z,72.3828465872537
2023-09-11T01:30:11.730Z,72.37236209871115
2023-09-11T01:37:52.966Z,72.47125494197267
2023-09-11T01:43:35.208Z,72.52629410305852
2023-09-11T01:46:54.300Z,72.55714430955604
2023-09-11T01:50:14.161Z,72.58617530668614
2023-09-11T01:53:33.576Z,72.62755759440375
2023-09-11T01:56:54.036Z,72.64895953555603
2023-09-11T02:00:14.252Z,72.6876928867629
2023-09-11T02:03:34.278Z,72.75165637591587
2023-09-11T02:06:54.219Z,72.8241325793677
2023-09-11T02:11:50.617Z,72.80883168954391
2023-09-11T02:15:10.113Z,72.76921586737947
2023-09-11T02:18:29.951Z,72.77222365655625
2023-09-11T02:21:49.272Z,72.76936033059538
2023-09-11T02:25:08.949Z,72.7829429315389
2023-09-11T02:28:28.953Z,72.80268864100232
2023-09-11T02:31:51.799Z,72.81460786511599
2023-09-11T02:35:11.655Z,72.83354511844746
2023-09-11T02:38:31.556Z,72.8514610912149
2023-09-11T02:47:57.975Z,72.7963249073576
2023-09-11T02:51:17.932Z,72.74056675295002
2023-09-11T02:56:31.601Z,72.73554103341904
2023-09-11T02:59:51.568Z,72.71564797517625
2023-09-11T03:03:11.577Z,72.71343556992605
2023-09-11T03:06:31.639Z,72.72166248113376
2023-09-11T03:09:51.526Z,72.65393505350056
2023-09-11T03:13:11.444Z,72.65185677538369
2023-09-11T03:16:31.153Z,72.6541797292364
2023-09-11T03:19:50.653Z,72.56091204440943
2023-09-11T03:26:55.991Z,72.5998345118918
2023-09-11T03:30:15.596Z,72.51444051353762
2023-09-11T03:36:15.511Z,72.47871310499416
2023-09-11T03:39:52.820Z,72.45557012822493
2023-09-11T03:43:12.087Z,72.46666545939628
2023-09-11T03:46:32.116Z,72.47881842544753
2023-09-11T03:53:49.761Z,72.37593043656894
2023-09-11T03:57:09.207Z,72.3378733301757
2023-09-11T04:00:28.683Z,72.37593407617558
2023-09-11T04:03:48.084Z,72.40741865529763
2023-09-11T04:07:07.654Z,72.46840057300118
2023-09-11T04:11:50.260Z,72.45793611845541
2023-09-11T04:16:35.289Z,72.52799198641674
2023-09-11T04:21:42.331Z,72.49859944999217
2023-09-11T04:25:02.168Z,72.51232551011127
2023-09-11T04:28:41.280Z,72.54148031277653
2023-09-11T04:32:01.341Z,72.55599528736906
2023-09-11T04:35:20.979Z,72.58701066223843
2023-09-11T04:38:40.991Z,72.5825323217495
2023-09-11T04:42:00.805Z,72.55967475689984
2023-09-11T04:45:20.753Z,72.53090571488728
2023-09-11T04:48:39.937Z,72.48718148104246
2023-09-11T04:51:59.726Z,72.44064328117139
2023-09-11T04:55:19.510Z,72.39828822723752
2023-09-11T04:59:26.441Z,72.35175569820062
2023-09-11T05:02:46.495Z,72.28777021379709
2023-09-11T05:06:06.286Z,72.2389865224506
2023-09-11T05:09:25.968Z,72.18187805106152
2023-09-11T05:12:45.327Z,72.165847892753
2023-09-11T05:16:05.655Z,72.06481803748261
2023-09-11T05:19:25.215Z,71.92488778397373
2023-09-11T05:22:50.100Z,71.91625044052194
2023-09-11T05:26:09.969Z,71.89804341121894
2023-09-11T05:29:29.811Z,72.01748014121303
2023-09-11T05:32:49.515Z,72.13338330942034
2023-09-11T05:36:09.412Z,72.13363235424215
2023-09-11T05:39:29.003Z,72.15946136107259
2023-09-11T05:42:50.056Z,72.14319340977147
2023-09-11T05:46:09.112Z,72.15674826863305
2023-09-11T05:49:28.956Z,72.15480449738776
2023-09-11T05:52:49.314Z,72.15158501598944
2023-09-11T05:56:08.950Z,72.14808134623361
2023-09-11T05:59:28.038Z,72.16532433025085
2023-09-11T06:02:48.130Z,72.15716727332084
2023-09-11T06:11:43.646Z,72.21971750471191
2023-09-11T06:15:03.842Z,72.80967076765103
2023-09-11T06:18:23.489Z,73.47943024921354
2023-09-11T06:21:42.924Z,73.30838825337327
2023-09-11T06:29:44.182Z,73.02160675733832
2023-09-11T06:33:04.518Z,72.74226830901536
2023-09-11T06:36:23.815Z,72.74399161722357
2023-09-11T06:39:43.602Z,72.4772469503375
2023-09-11T06:43:03.810Z,72.45192170165991
2023-09-11T06:46:23.906Z,72.24757676655051
2023-09-11T06:49:43.768Z,72.09361751530238
2023-09-11T06:53:03.895Z,71.79010379388993
2023-09-11T06:56:23.740Z,71.68227256052067
2023-09-11T06:59:43.454Z,71.63423999207053
2023-09-11T07:04:01.266Z,71.64149736370975
2023-09-11T07:07:20.835Z,71.64077289839122
2023-09-11T07:10:41.942Z,71.63308054512599
2023-09-11T07:16:42.704Z,71.73846690806346
2023-09-11T07:20:02.382Z,71.72533364258378
2023-09-11T07:23:22.472Z,71.77326409279564
2023-09-11T07:26:42.011Z,71.79133267872737
2023-09-11T07:30:01.060Z,71.891960208763
2023-09-11T07:34:24.708Z,71.91247050651457
2023-09-11T07:37:45.149Z,71.63503115490187
2023-09-11T07:41:05.072Z,70.3417578991559
2023-09-11T07:44:24.880Z,66.27417582427452
2023-09-11T07:47:44.374Z,67.40375176617675
2023-09-11T07:51:03.945Z,65.94738330656777
2023-09-11T07:54:23.387Z,65.48476715786165
2023-09-11T07:57:42.872Z,69.62946606822581
2023-09-11T08:01:02.656Z,71.21881718341389
2023-09-11T08:07:48.137Z,72.04620192390199
2023-09-11T08:11:08.032Z,72.0185355919141
2023-09-11T08:14:28.029Z,71.85540100086676
2023-09-11T08:17:48.313Z,71.92812009967705
2023-09-11T08:21:08.034Z,71.91032514315792
2023-09-11T08:24:27.669Z,71.92515137969664
2023-09-11T08:27:47.644Z,72.0124051911723
2023-09-11T08:31:06.787Z,72.20803230758251
2023-09-11T08:34:26.409Z,72.03640217146364
2023-09-11T08:37:46.630Z,70.98376815141027
2023-09-11T08:42:38.341Z,72.72173967730399
2023-09-11T08:45:58.571Z,72.41693219960297
2023-09-11T08:49:17.384Z,72.91162730286396
2023-09-11T08:52:36.670Z,73.40369753200305
2023-09-11T08:55:56.941Z,73.61792638854504
2023-09-11T08:59:17.600Z,73.59894623739362
2023-09-11T09:03:59.209Z,73.6499787142936
2023-09-11T09:07:18.744Z,73.80573113199401
2023-09-11T09:10:38.201Z,73.71180649435263
2023-09-11T09:13:58.094Z,73.50622281848428
2023-09-11T09:17:17.970Z,73.40485082455514
2023-09-11T09:22:54.955Z,73.96414887069882
2023-09-11T09:26:15.856Z,73.58969870385552
2023-09-11T09:29:50.817Z,73.24228123884032
2023-09-11T09:33:10.696Z,73.26282307192506
2023-09-11T09:36:30.784Z,73.76862033774698
2023-09-11T09:39:50.773Z,73.95519673097655
2023-09-11T09:43:10.347Z,74.16534385923602
2023-09-11T09:49:01.695Z,73.89970906720487
2023-09-11T09:52:21.255Z,73.86194008136891
2023-09-11T09:59:51.155Z,74.22473504298529
2023-09-11T10:05:01.637Z,73.44682162111731
2023-09-11T10:08:21.263Z,73.67525223309556
2023-09-11T10:11:40.746Z,73.7628513477711
2023-09-11T10:15:00.747Z,74.00607864982192
2023-09-11T10:18:19.960Z,74.21295234649581
2023-09-11T10:21:39.974Z,74.47209100520392
2023-09-11T10:26:26.791Z,74.90146066340509
2023-09-11T10:29:46.935Z,74.87816869482582
2023-09-11T10:33:07.029Z,74.63891799230139
2023-09-11T10:38:12.124Z,74.76086241504542
2023-09-11T10:42:23.322Z,74.65276965929488
2023-09-11T10:45:57.743Z,74.54370561836416
2023-09-11T10:49:17.098Z,74.41613048333464
2023-09-11T10:53:12.527Z,74.2376158384807
2023-09-11T10:56:31.796Z,73.87896679719867
2023-09-11T10:59:51.280Z,73.72492287647134
2023-09-11T11:03:10.895Z,73.37722833971465
2023-09-11T11:06:30.842Z,73.10759947019675
2023-09-11T11:09:51.094Z,72.81227115229818
2023-09-11T11:13:11.005Z,72.57676459179423
2023-09-11T11:16:30.718Z,72.47603466290981
2023-09-11T11:21:30.717Z,72.27442799065082
2023-09-11T11:24:49.581Z,72.11405946014425
2023-09-11T11:28:09.351Z,72.00283937286895
2023-09-11T11:32:49.734Z,71.9636375738993
2023-09-11T11:36:09.962Z,71.941530316082
2023-09-11T11:39:29.400Z,71.89005852651523
2023-09-11T11:42:48.991Z,71.8284736783024
2023-09-11T11:46:08.451Z,71.60526125378227
2023-09-11T11:49:28.041Z,71.42674255918509
2023-09-11T11:52:47.993Z,71.19363896676265
2023-09-11T11:57:39.754Z,70.90770541633874
2023-09-11T12:00:59.535Z,70.89817865480663
2023-09-11T12:04:32.129Z,70.81206934339163
2023-09-11T12:07:58.451Z,70.64604963842018
2023-09-11T12:11:21.218Z,70.6786970742706
2023-09-11T12:14:40.617Z,70.71602305385701
2023-09-11T12:18:00.266Z,70.50320684824271
2023-09-11T12:22:06.729Z,70.41273075749992
2023-09-11T12:25:27.971Z,70.257654537046
2023-09-11T12:28:48.017Z,70.20512100292021
2023-09-11T12:32:08.026Z,70.00743571204212
2023-09-11T12:35:27.906Z,69.92389422642923
2023-09-11T12:38:46.876Z,69.74635728584913
2023-09-11T12:42:06.475Z,69.62441844712073
2023-09-11T12:45:25.200Z,69.72364092229253
2023-09-11T12:48:45.768Z,69.70676620299297
2023-09-11T12:52:05.591Z,69.51110110243917
2023-09-11T12:55:25.261Z,69.54198094038735
2023-09-11T12:58:44.590Z,69.65819917478939
2023-09-11T13:02:04.085Z,69.64795973812599
2023-09-11T13:06:48.479Z,69.6894840216658
2023-09-11T13:13:05.405Z,69.82725991165421
2023-09-11T13:16:24.313Z,69.78896409482896
2023-09-11T13:19:43.852Z,69.76402814137886
2023-09-11T13:23:03.324Z,69.75372988485341
2023-09-11T13:26:22.795Z,69.72496826598416
2023-09-11T13:29:42.535Z,69.66481849598509
2023-09-11T13:33:02.644Z,69.65611535091892
2023-09-11T13:36:21.437Z,69.67289125967305
2023-09-11T13:39:40.911Z,69.70641907208423
2023-09-11T13:44:29.664Z,69.53902128792751
2023-09-11T13:47:49.434Z,69.59220742280407
2023-09-11T13:51:09.278Z,69.48035953297018
2023-09-11T13:54:28.291Z,69.38359773478008
2023-09-11T14:00:33.153Z,69.2866505514702
2023-09-11T14:03:53.128Z,69.3942567277041
2023-09-11T14:07:12.407Z,69.38010069637093
2023-09-11T14:12:21.302Z,69.37378588524358
2023-09-11T14:15:40.809Z,69.38742346388783
2023-09-11T14:21:19.996Z,69.32772440640429
2023-09-11T14:24:39.141Z,69.3332940723418
2023-09-11T14:27:59.213Z,69.35729327172342
2023-09-11T14:31:18.706Z,69.31877013647082
2023-09-11T14:34:38.896Z,69.3330067504245
2023-09-11T14:37:57.950Z,69.29428905867734
2023-09-11T14:41:17.545Z,69.26622208837505
2023-09-11T14:44:37.306Z,69.29246830549829
2023-09-11T14:47:57.480Z,69.28733085462291
2023-09-11T14:51:16.900Z,69.29961208732566
2023-09-11T14:54:51.227Z,69.28457280312038
2023-09-11T14:58:13.544Z,69.29919402734876
2023-09-11T15:01:33.413Z,69.29563570721486
2023-09-11T15:04:53.078Z,69.22038204310074
2023-09-11T15:08:13.290Z,69.1751535504492
2023-09-11T15:11:32.394Z,69.19362521638284
2023-09-11T15:14:52.180Z,69.18960405991817
2023-09-11T15:18:12.399Z,69.20988943691944
2023-09-11T15:21:32.319Z,69.32899291115636
2023-09-11T15:24:52.419Z,69.34753899554599
2023-09-11T15:28:12.098Z,69.3299207561773
2023-09-11T15:34:26.769Z,69.26072362977398
2023-09-11T15:37:46.491Z,69.26094853640622
2023-09-11T15:41:05.824Z,69.33749215980407
2023-09-11T15:44:25.730Z,69.38324407312132
2023-09-11T15:47:45.497Z,69.41791096508959
2023-09-11T15:51:05.379Z,69.37008241474373
2023-09-11T15:54:25.004Z,69.37306056223277
2023-09-11T15:58:32.551Z,69.39224040239958
2023-09-11T16:01:52.133Z,69.43576115103384
2023-09-11T16:07:03.117Z,69.44076673171936
2023-09-11T16:10:22.692Z,69.45000543452258
2023-09-11T16:13:41.473Z,69.43403507126828
2023-09-11T16:17:01.532Z,69.38698597791796
2023-09-11T16:20:20.909Z,69.4070169084668
2023-09-11T16:23:40.284Z,69.41869901432982
2023-09-11T16:26:59.178Z,69.4302930107323
2023-09-11T16:30:18.744Z,69.43851943403409
2023-09-11T16:43:03.055Z,70.02089966249328
2023-09-11T16:46:22.825Z,70.22790081127759
2023-09-11T16:49:42.184Z,70.45874671297484
2023-09-11T16:53:02.278Z,70.62605736134559
2023-09-11T16:56:21.459Z,70.8432584436606
2023-09-11T16:59:41.336Z,70.97798465994234
2023-09-11T17:03:01.697Z,71.00766351599357
2023-09-11T17:06:21.371Z,70.71202802518106
2023-09-11T17:09:41.292Z,70.79833096475716
2023-09-11T17:13:01.615Z,70.80411633910744
2023-09-11T17:16:21.107Z,70.75162820880671
2023-09-11T17:19:40.779Z,70.4627571709605
2023-09-11T17:23:00.669Z,70.44845010820319
2023-09-11T17:26:28.805Z,70.21944462586343
2023-09-11T17:29:48.964Z,70.45005900741522
2023-09-11T17:33:10.604Z,70.32025856440505
2023-09-11T17:36:32.306Z,70.30259656105248
2023-09-11T17:39:51.924Z,70.1171865393251
2023-09-11T17:43:11.200Z,70.36630292797554
2023-09-11T17:46:30.987Z,70.23404955224127
2023-09-11T17:49:51.050Z,69.9962202921103
2023-09-11T17:53:10.328Z,69.93011010082452
2023-09-11T17:56:29.510Z,69.87829386292651
2023-09-11T17:59:48.720Z,69.93509909602297
2023-09-11T18:03:08.648Z,69.9251043754075
2023-09-11T18:06:28.387Z,69.93330751006114
2023-09-11T18:12:04.217Z,69.94958546879212
2023-09-11T18:15:24.223Z,69.96832110557061
2023-09-11T18:21:20.723Z,70.0117497931172
2023-09-11T18:24:40.230Z,70.02161290843775
2023-09-11T18:28:00.454Z,70.04948915643386
2023-09-11T18:33:54.260Z,70.12469487036526
2023-09-11T18:37:13.782Z,70.14431275566204
2023-09-11T18:40:33.364Z,70.17465643234257
2023-09-11T18:43:53.365Z,70.17027084997144
2023-09-11T18:47:13.124Z,70.21849570444598
2023-09-11T18:50:32.189Z,70.2394963039266
2023-09-11T18:53:52.296Z,70.26755686082096
2023-09-11T18:57:11.073Z,70.33456990151578
2023-09-11T19:00:30.861Z,70.37078495117129
2023-09-11T19:06:55.226Z,70.40461842246788
2023-09-11T19:10:14.391Z,70.40955415680968
2023-09-11T19:13:34.085Z,70.46173491124513
2023-09-11T19:16:59.381Z,70.46807979709524
2023-09-11T19:20:18.858Z,70.46377512680787
2023-09-11T19:24:00.913Z,70.53370151221726
2023-09-11T19:29:00.072Z,70.6134266525252
2023-09-11T19:38:46.040Z,70.62604893271832
2023-09-11T19:51:59.296Z,70.71643959421554
2023-09-11T19:57:08.773Z,70.8427141209777
2023-09-11T20:03:07.310Z,71.39878803352956
2023-09-11T20:06:27.591Z,71.71789318908941
2023-09-11T20:09:47.694Z,72.6630662728618
2023-09-11T20:13:07.219Z,72.68886052995632
2023-09-11T20:16:26.016Z,72.73189831239321
2023-09-11T20:19:46.014Z,73.33120352206053
2023-09-11T20:23:06.140Z,73.58612208090028
2023-09-11T20:26:25.945Z,73.72030443142363
2023-09-11T20:31:46.210Z,73.87445963196568
2023-09-11T20:35:47.220Z,73.97943101800396
2023-09-11T20:39:07.503Z,74.13585756034888
2023-09-11T20:42:27.695Z,74.20220454144857
2023-09-11T20:45:47.323Z,74.14709924739938
2023-09-11T20:49:07.227Z,74.06274397256516
2023-09-11T20:52:26.605Z,74.1906126465079
2023-09-11T20:55:45.980Z,74.32663729520907
2023-09-11T20:59:05.852Z,74.21499742872159
2023-09-11T21:03:45.338Z,74.28911189715619
2023-09-11T21:07:57.212Z,74.19300669448658
2023-09-11T21:11:16.597Z,74.11188386072189
2023-09-11T21:14:36.274Z,74.07040933174714
2023-09-11T21:17:56.527Z,74.05872438093547
2023-09-11T21:21:16.409Z,73.96327448077746
2023-09-11T21:24:44.320Z,74.02379601414884
2023-09-11T21:28:03.285Z,73.64071047614912
2023-09-11T21:31:23.174Z,73.67358848133469
2023-09-11T21:34:43.155Z,73.58104269388865
2023-09-11T21:38:03.235Z,73.48558680097301
2023-09-11T21:45:12.639Z,73.51814194540543
2023-09-11T21:53:05.500Z,73.8089315096293
2023-09-11T21:56:25.074Z,73.81084693589024
2023-09-11T21:59:45.179Z,73.71293733897247
2023-09-11T22:03:05.499Z,73.69215490642782
2023-09-11T22:06:46.026Z,73.64835185697497
2023-09-11T22:10:05.895Z,73.59518799296517
2023-09-11T22:13:25.165Z,73.52084527023908
2023-09-11T22:16:44.600Z,73.53691402709737
2023-09-11T22:20:05.755Z,73.46090229462003
2023-09-11T22:23:40.961Z,73.41321243052313
2023-09-11T22:30:19.174Z,73.58346177384273
2023-09-11T22:36:23.597Z,73.71254657548647
2023-09-11T22:39:43.162Z,73.80164500334203
2023-09-11T22:43:03.454Z,73.7833058626435
2023-09-11T22:46:23.478Z,73.83138148625758
2023-09-11T22:49:43.100Z,74.0607244339363
2023-09-11T22:53:03.179Z,74.08865984902717
2023-09-11T22:56:23.072Z,74.17109866603103
2023-09-11T22:59:42.558Z,74.21925783947721
2023-09-11T23:03:02.126Z,74.50608031030569
2023-09-11T23:06:22.247Z,74.68578114611552
2023-09-11T23:09:41.683Z,74.66288909957706
2023-09-11T23:13:01.381Z,74.67725793322526
2023-09-11T23:16:20.871Z,74.9872551233865
2023-09-11T23:19:40.621Z,75.10478141824454
2023-09-11T23:23:00.719Z,75.35545934931162
2023-09-11T23:26:19.582Z,75.36342560723585
2023-09-11T23:29:39.054Z,75.75676788495691
2023-09-11T23:32:59.456Z,75.73593098553361
2023-09-11T23:38:33.059Z,75.872779965785
2023-09-11T23:41:53.664Z,75.92130960001381
2023-09-11T23:45:13.078Z,76.05258473215974
2023-09-11T23:48:32.961Z,76.0810819622053
2023-09-11T23:51:53.010Z,76.1944430734031
2023-09-11T23:55:12.548Z,76.30589589318154
2023-09-11T23:58:32.381Z,76.57396274803513
